Time;durP1;ratioP1;P1;durP2;ratioP2;P2;SDS_P1;SDS_P2;PMS_P1;PMS_P2;Temp;Humidity;BMP_temperature;BMP_pressure;BME280_temperature;BME280_humidity;BME280_pressure;Samples;Min_cycle;Max_cycle;Signal;HPM_P1;HPM_P2
2024/02/03 00:02:18;;;;;;;3.55;1.87;;;12.10;71.00;;;;;;2286223;55;20957;-68
2024/02/03 00:04:47;;;;;;;2.62;1.42;;;12.00;70.90;;;;;;2520594;54;20989;-67
2024/02/03 00:07:14;;;;;;;2.83;1.40;;;12.00;70.90;;;;;;2286260;55;21292;-68
2024/02/03 00:09:40;;;;;;;3.12;1.77;;;12.00;70.90;;;;;;2521380;54;20957;-67
2024/02/03 00:12:10;;;;;;;2.62;1.23;;;11.90;70.80;;;;;;2520554;54;20949;-67
2024/02/03 00:14:36;;;;;;;4.47;1.50;;;11.90;70.80;;;;;;2521148;54;21241;-67
2024/02/03 00:17:03;;;;;;;3.08;1.60;;;11.90;70.80;;;;;;2520755;54;21528;-66
2024/02/03 00:19:29;;;;;;;3.30;1.75;;;11.80;70.80;;;;;;2282791;56;20942;-67
2024/02/03 00:21:58;;;;;;;3.40;1.70;;;11.80;70.80;;;;;;2286316;55;21059;-66
2024/02/03 00:24:27;;;;;;;2.37;1.17;;;11.80;70.70;;;;;;2520870;54;20977;-68
2024/02/03 00:26:53;;;;;;;3.15;1.70;;;11.70;70.70;;;;;;2521122;54;20956;-67
2024/02/03 00:29:20;;;;;;;4.10;1.60;;;11.70;70.80;;;;;;2286582;55;20941;-67
2024/02/03 00:31:46;;;;;;;3.47;1.60;;;11.70;70.80;;;;;;2282312;56;21028;-68
2024/02/03 00:34:12;;;;;;;3.03;1.48;;;11.60;70.70;;;;;;2520503;54;20985;-67
2024/02/03 00:36:39;;;;;;;2.53;1.20;;;11.60;70.70;;;;;;2286833;55;20953;-67
2024/02/03 00:39:06;;;;;;;3.20;1.60;;;11.60;70.70;;;;;;2281954;56;20981;-68
2024/02/03 00:41:32;;;;;;;3.12;1.50;;;11.50;70.60;;;;;;2287151;56;20989;-68
2024/02/03 00:43:59;;;;;;;2.95;1.40;;;11.50;70.40;;;;;;2521249;54;21434;-69
2024/02/03 00:46:28;;;;;;;3.25;1.58;;;11.40;70.30;;;;;;2517715;54;21059;-67
2024/02/03 00:48:54;;;;;;;3.83;1.50;;;11.40;70.10;;;;;;2281816;56;21037;-67
2024/02/03 00:51:21;;;;;;;3.55;1.42;;;11.40;70.30;;;;;;2287047;55;20962;-66
2024/02/03 00:53:47;;;;;;;2.95;1.45;;;11.30;70.10;;;;;;2289664;55;20957;-67
2024/02/03 00:56:13;;;;;;;3.08;1.42;;;11.20;70.00;;;;;;2279115;55;21004;-68
2024/02/03 00:58:40;;;;;;;3.60;1.65;;;11.10;70.00;;;;;;2282166;56;21358;-68
2024/02/03 01:01:07;;;;;;;3.83;1.40;;;11.20;70.10;;;;;;2286473;55;21328;-66
2024/02/03 01:03:33;;;;;;;2.97;1.27;;;11.10;70.00;;;;;;2287729;55;20977;-68
2024/02/03 01:06:00;;;;;;;2.62;1.00;;;11.00;69.80;;;;;;2286654;55;20987;-68
2024/02/03 01:08:26;;;;;;;2.55;1.17;;;11.00;69.80;;;;;;2521087;54;20953;-67
2024/02/03 01:10:55;;;;;;;3.10;1.33;;;10.90;69.60;;;;;;2286283;55;20988;-68
2024/02/03 01:13:21;;;;;;;2.62;1.30;;;10.80;69.30;;;;;;2286196;55;20988;-67
2024/02/03 01:15:48;;;;;;;2.83;1.30;;;10.80;69.60;;;;;;2521292;54;21454;-67
2024/02/03 01:18:14;;;;;;;3.42;1.50;;;10.70;69.60;;;;;;2520772;54;20937;-67
2024/02/03 01:20:41;;;;;;;3.00;1.40;;;10.60;69.40;;;;;;2286847;55;20961;-68
2024/02/03 01:23:07;;;;;;;3.60;1.65;;;10.60;69.40;;;;;;2520369;54;21304;-67
2024/02/03 01:25:34;;;;;;;3.90;1.70;;;10.50;69.40;;;;;;2287161;55;20989;-67
2024/02/03 01:28:00;;;;;;;3.97;1.90;;;10.50;69.50;;;;;;2286672;55;20954;-68
2024/02/03 01:30:26;;;;;;;3.80;1.90;;;10.40;69.50;;;;;;2287389;55;21028;-68
2024/02/03 01:32:55;;;;;;;3.83;2.00;;;10.40;69.60;;;;;;2520568;54;20949;-67
2024/02/03 01:35:21;;;;;;;4.82;2.28;;;10.30;70.40;;;;;;2521258;54;21426;-66
2024/02/03 01:37:47;;;;;;;4.37;1.85;;;10.30;69.80;;;;;;2521356;54;20957;-68
2024/02/03 01:40:14;;;;;;;3.47;1.80;;;10.20;69.80;;;;;;2285617;55;21457;-66
2024/02/03 01:42:41;;;;;;;2.87;1.52;;;10.20;70.00;;;;;;2286668;55;21013;-68
2024/02/03 01:45:07;;;;;;;3.80;1.92;;;10.20;70.10;;;;;;2287226;55;20965;-66
2024/02/03 01:47:35;;;;;;;3.40;2.08;;;10.10;70.00;;;;;;2287138;55;21008;-67
2024/02/03 01:50:01;;;;;;;2.70;1.55;;;10.10;70.10;;;;;;2285632;55;20954;-66
2024/02/03 01:52:28;;;;;;;4.93;2.50;;;10.10;70.30;;;;;;2511562;55;21768;-68
2024/02/03 01:54:57;;;;;;;4.45;2.53;;;10.00;70.40;;;;;;2515683;54;20948;-66
2024/02/03 01:57:24;;;;;;;4.10;2.30;;;10.00;70.60;;;;;;2283246;55;20941;-66
2024/02/03 01:59:51;;;;;;;4.00;2.42;;;10.00;70.80;;;;;;2510844;55;21120;-69
2024/02/03 02:02:17;;;;;;;4.95;2.78;;;10.00;70.90;;;;;;2281463;56;21005;-66
2024/02/03 02:04:44;;;;;;;4.68;2.75;;;10.00;71.20;;;;;;2286784;55;21449;-67
2024/02/03 02:07:10;;;;;;;5.22;2.90;;;10.00;71.40;;;;;;2285939;55;20944;-66
2024/02/03 02:09:37;;;;;;;5.07;3.03;;;10.00;71.50;;;;;;2286993;55;20987;-67
2024/02/03 02:12:03;;;;;;;4.87;2.83;;;10.00;71.70;;;;;;2282774;55;20993;-67
2024/02/03 02:14:30;;;;;;;4.68;2.75;;;10.00;71.80;;;;;;2285588;55;20989;-69
2024/02/03 02:16:57;;;;;;;5.00;2.97;;;10.00;71.90;;;;;;2286457;55;21033;-66
2024/02/03 02:19:23;;;;;;;4.53;2.37;;;10.00;71.90;;;;;;2520004;54;21010;-68
2024/02/03 02:21:50;;;;;;;3.95;2.20;;;10.00;71.90;;;;;;2520671;54;20946;-66
2024/02/03 02:24:17;;;;;;;4.87;2.62;;;10.10;72.10;;;;;;2519350;54;20938;-67
2024/02/03 02:26:43;;;;;;;4.15;2.65;;;10.00;72.00;;;;;;2286360;55;20961;-68
2024/02/03 02:29:10;;;;;;;4.18;2.53;;;10.10;72.10;;;;;;2285161;55;21577;-68
2024/02/03 02:31:39;;;;;;;4.68;2.90;;;10.20;72.30;;;;;;2286263;55;21001;-66
2024/02/03 02:34:06;;;;;;;5.25;3.22;;;10.10;72.10;;;;;;2286160;55;21447;-67
2024/02/03 02:36:34;;;;;;;4.80;2.85;;;10.10;72.20;;;;;;2285511;55;21029;-68
2024/02/03 02:39:00;;;;;;;5.20;3.00;;;10.10;72.30;;;;;;2520137;54;20976;-67
2024/02/03 02:41:27;;;;;;;4.55;2.67;;;10.20;72.40;;;;;;2286211;56;20930;-67
2024/02/03 02:43:55;;;;;;;5.53;2.87;;;10.20;72.40;;;;;;2284972;55;21205;-69
2024/02/03 02:46:26;;;;;;;4.95;2.67;;;10.20;72.40;;;;;;2285943;55;20989;-68
2024/02/03 02:48:53;;;;;;;4.53;2.37;;;10.20;72.40;;;;;;2282629;55;20981;-67
2024/02/03 02:51:19;;;;;;;5.03;2.65;;;10.20;72.40;;;;;;2520161;54;20992;-68
2024/02/03 02:53:45;;;;;;;4.07;2.47;;;10.30;72.40;;;;;;2515005;54;21034;-67
2024/02/03 02:56:15;;;;;;;4.12;2.47;;;10.20;72.20;;;;;;2283069;55;21026;-67
2024/02/03 02:58:42;;;;;;;6.35;2.50;;;10.20;72.10;;;;;;2520013;54;21466;-67
2024/02/03 03:01:08;;;;;;;5.05;2.60;;;10.20;72.00;;;;;;2520315;54;20945;-66
2024/02/03 03:03:34;;;;;;;6.68;3.12;;;10.20;71.90;;;;;;2289910;55;20942;-66
2024/02/03 03:06:01;;;;;;;4.90;2.50;;;10.20;71.70;;;;;;2510802;54;21012;-67
2024/02/03 03:08:27;;;;;;;4.30;2.28;;;10.20;71.60;;;;;;2286367;55;20973;-67
2024/02/03 03:10:54;;;;;;;5.43;2.60;;;10.20;71.50;;;;;;2520972;54;21085;-68
2024/02/03 03:13:20;;;;;;;5.75;2.40;;;10.20;71.40;;;;;;2520193;54;20968;-66
2024/02/03 03:15:49;;;;;;;5.03;2.67;;;10.20;71.40;;;;;;2286298;55;20934;-68
2024/02/03 03:18:16;;;;;;;4.53;2.70;;;10.20;71.30;;;;;;2286568;55;20937;-67
2024/02/03 03:20:43;;;;;;;5.65;2.92;;;10.20;71.30;;;;;;2285285;55;21018;-67
2024/02/03 03:23:10;;;;;;;5.68;3.30;;;10.10;71.20;;;;;;2283424;55;20940;-66
2024/02/03 03:25:39;;;;;;;5.18;3.00;;;10.10;71.20;;;;;;2286124;55;21501;-66
2024/02/03 03:28:05;;;;;;;5.47;3.17;;;10.10;71.30;;;;;;2519725;54;20953;-67
2024/02/03 03:30:31;;;;;;;5.80;3.35;;;10.00;71.20;;;;;;2285580;55;20921;-67
2024/02/03 03:32:58;;;;;;;5.35;2.90;;;10.00;71.20;;;;;;2520322;54;20970;-67
2024/02/03 03:35:25;;;;;;;5.15;3.03;;;10.00;71.20;;;;;;2519822;54;20953;-68
2024/02/03 03:37:51;;;;;;;6.07;3.25;;;9.90;72.30;;;;;;2518967;54;20990;-74
2024/02/03 03:40:17;;;;;;;6.00;3.50;;;9.90;72.50;;;;;;2279845;55;20993;-66
2024/02/03 03:42:46;;;;;;;6.70;3.70;;;9.90;72.60;;;;;;2286743;55;20998;-66
2024/02/03 03:45:12;;;;;;;5.47;3.37;;;9.90;72.70;;;;;;2520105;54;21004;-69
2024/02/03 03:47:38;;;;;;;5.75;3.33;;;9.90;72.80;;;;;;2519914;54;21271;-68
2024/02/03 03:50:06;;;;;;;6.35;3.62;;;9.90;72.80;;;;;;2286108;55;20949;-67
2024/02/03 03:52:32;;;;;;;5.75;3.40;;;9.90;72.80;;;;;;2286660;55;20933;-67
2024/02/03 03:55:00;;;;;;;4.72;2.75;;;9.90;72.90;;;;;;2520547;54;20957;-67
2024/02/03 03:57:26;;;;;;;4.62;2.58;;;9.90;72.90;;;;;;2285895;55;21002;-67
2024/02/03 03:59:53;;;;;;;5.28;2.87;;;9.90;72.90;;;;;;2286671;55;21026;-68
2024/02/03 04:02:19;;;;;;;4.40;2.42;;;9.90;72.80;;;;;;2286555;55;21001;-67
2024/02/03 04:04:45;;;;;;;4.55;2.53;;;9.80;72.60;;;;;;2520528;54;21490;-66
2024/02/03 04:07:12;;;;;;;5.25;3.08;;;9.80;72.50;;;;;;2510612;55;21125;-67
2024/02/03 04:09:38;;;;;;;4.60;2.55;;;9.80;72.40;;;;;;2283685;55;21225;-66
2024/02/03 04:12:04;;;;;;;5.50;3.05;;;9.80;72.20;;;;;;2285654;55;20929;-68
2024/02/03 04:14:33;;;;;;;4.50;2.60;;;9.80;72.20;;;;;;2286157;55;21022;-68
2024/02/03 04:17:00;;;;;;;4.70;2.85;;;9.70;72.00;;;;;;2282980;55;21880;-68
2024/02/03 04:19:26;;;;;;;5.35;2.97;;;9.70;72.00;;;;;;2519889;54;20929;-66
2024/02/03 04:21:52;;;;;;;4.82;2.90;;;9.70;71.90;;;;;;2520877;54;21198;-68
2024/02/03 04:24:19;;;;;;;6.37;2.97;;;9.70;71.90;;;;;;2519889;54;20969;-67
2024/02/03 04:26:46;;;;;;;6.43;3.70;;;9.60;71.80;;;;;;2286291;55;20985;-68
2024/02/03 04:29:15;;;;;;;8.73;4.90;;;9.60;71.70;;;;;;2286331;55;21005;-66
2024/02/03 04:31:42;;;;;;;9.55;5.20;;;9.60;71.70;;;;;;2286044;55;20981;-68
2024/02/03 04:34:09;;;;;;;6.43;4.07;;;9.50;71.60;;;;;;2520990;54;20949;-66
2024/02/03 04:36:37;;;;;;;6.93;3.40;;;9.50;71.60;;;;;;2285813;55;21069;-66
2024/02/03 04:39:06;;;;;;;4.62;3.00;;;9.50;71.50;;;;;;2286737;55;20989;-67
2024/02/03 04:41:34;;;;;;;5.85;2.90;;;9.40;71.40;;;;;;2285763;55;20949;-66
2024/02/03 04:44:00;;;;;;;4.97;2.60;;;9.50;71.50;;;;;;2286453;55;21815;-66
2024/02/03 04:46:29;;;;;;;4.15;2.20;;;9.30;71.30;;;;;;2520283;54;20921;-67
2024/02/03 04:48:56;;;;;;;4.72;2.50;;;9.20;71.10;;;;;;2286140;55;20957;-68
2024/02/03 04:51:22;;;;;;;4.05;2.17;;;9.20;71.20;;;;;;2286340;55;21024;-67
2024/02/03 04:53:48;;;;;;;4.07;1.98;;;9.20;71.20;;;;;;2286519;55;21346;-68
2024/02/03 04:56:15;;;;;;;3.55;1.87;;;9.10;71.20;;;;;;2520190;54;20933;-68
2024/02/03 04:58:42;;;;;;;3.58;2.00;;;9.10;71.20;;;;;;2285830;55;21029;-66
2024/02/03 05:01:09;;;;;;;3.40;1.73;;;9.00;71.10;;;;;;2286124;55;20949;-66
2024/02/03 05:03:37;;;;;;;3.30;1.65;;;9.00;71.10;;;;;;2511728;55;20950;-66
2024/02/03 05:06:06;;;;;;;4.07;1.90;;;9.00;71.10;;;;;;2286950;55;21763;-66
2024/02/03 05:08:34;;;;;;;3.97;1.90;;;8.90;71.00;;;;;;2286662;55;21284;-66
2024/02/03 05:11:04;;;;;;;3.15;1.40;;;8.70;70.90;;;;;;2520184;54;21022;-66
2024/02/03 05:13:30;;;;;;;3.30;1.50;;;8.80;70.90;;;;;;2520353;54;20945;-66
2024/02/03 05:15:57;;;;;;;3.28;1.52;;;8.80;71.00;;;;;;2287397;55;21476;-66
2024/02/03 05:18:23;;;;;;;3.60;1.73;;;8.80;70.90;;;;;;2281973;56;21442;-67
2024/02/03 05:20:49;;;;;;;3.00;1.25;;;8.70;70.80;;;;;;2286140;55;21037;-67
2024/02/03 05:23:16;;;;;;;4.25;1.90;;;8.60;70.70;;;;;;2286052;55;21224;-67
2024/02/03 05:25:43;;;;;;;3.55;1.80;;;8.60;70.70;;;;;;2519964;54;21403;-67
2024/02/03 05:28:10;;;;;;;3.42;1.55;;;8.60;70.90;;;;;;2286434;56;20941;-66
2024/02/03 05:30:36;;;;;;;3.55;1.90;;;8.50;70.80;;;;;;2520237;54;20934;-66
2024/02/03 05:33:03;;;;;;;4.05;1.73;;;8.50;70.80;;;;;;2520232;54;20944;-67
2024/02/03 05:35:29;;;;;;;3.12;1.70;;;8.40;70.80;;;;;;2286499;55;20957;-67
2024/02/03 05:37:58;;;;;;;3.85;2.00;;;8.40;70.80;;;;;;2285991;55;21103;-67
2024/02/03 05:40:25;;;;;;;3.65;1.58;;;8.40;70.90;;;;;;2520485;54;21975;-68
2024/02/03 05:42:51;;;;;;;4.53;2.10;;;8.30;70.80;;;;;;2289032;55;20942;-67
2024/02/03 05:45:19;;;;;;;3.30;1.50;;;8.30;70.90;;;;;;2282080;55;20945;-67
2024/02/03 05:47:46;;;;;;;3.70;1.42;;;8.20;70.90;;;;;;2280661;56;21018;-66
2024/02/03 05:50:12;;;;;;;3.65;1.45;;;8.20;70.90;;;;;;2283121;55;20958;-66
2024/02/03 05:52:39;;;;;;;3.78;1.58;;;8.20;70.90;;;;;;2520088;54;20998;-66
2024/02/03 05:55:06;;;;;;;4.37;1.95;;;8.10;70.80;;;;;;2520650;54;20933;-68
2024/02/03 05:57:32;;;;;;;4.47;2.15;;;8.10;70.80;;;;;;2285886;55;21016;-66
2024/02/03 05:59:58;;;;;;;7.93;3.90;;;8.00;70.60;;;;;;2520513;54;20946;-67
2024/02/03 06:02:29;;;;;;;10.70;5.72;;;8.00;70.70;;;;;;2286486;55;20929;-68
2024/02/03 06:04:55;;;;;;;8.07;4.57;;;8.00;70.80;;;;;;2285910;55;21189;-67
2024/02/03 06:07:22;;;;;;;6.60;3.62;;;7.90;70.90;;;;;;2286511;55;20945;-66
2024/02/03 06:09:48;;;;;;;6.82;3.53;;;7.90;71.20;;;;;;2286534;55;21021;-67
2024/02/03 06:12:14;;;;;;;6.05;3.65;;;7.90;71.40;;;;;;2286096;55;20941;-67
2024/02/03 06:14:43;;;;;;;7.28;3.70;;;7.90;71.40;;;;;;2286352;55;21387;-67
2024/02/03 06:17:09;;;;;;;6.57;3.35;;;7.90;71.60;;;;;;2511457;55;21914;-66
2024/02/03 06:19:36;;;;;;;5.85;3.05;;;7.80;71.70;;;;;;2286648;55;21004;-67
2024/02/03 06:22:04;;;;;;;5.10;2.42;;;7.80;71.90;;;;;;2519911;54;20952;-67
2024/02/03 06:24:31;;;;;;;5.72;3.20;;;7.80;71.90;;;;;;2518827;54;20945;-67
2024/02/03 06:26:57;;;;;;;5.15;2.60;;;7.80;71.90;;;;;;2280005;56;21454;-67
2024/02/03 06:29:24;;;;;;;5.85;3.28;;;7.80;71.90;;;;;;2286578;55;20913;-67
2024/02/03 06:31:50;;;;;;;5.87;3.30;;;7.80;71.90;;;;;;2520862;54;21001;-67
2024/02/03 06:34:16;;;;;;;5.70;3.53;;;7.80;72.00;;;;;;2286835;55;20997;-67
2024/02/03 06:36:43;;;;;;;5.78;3.08;;;7.80;72.10;;;;;;2285709;55;22144;-66
2024/02/03 06:39:09;;;;;;;5.22;3.03;;;7.80;72.10;;;;;;2282437;55;20989;-68
2024/02/03 06:41:36;;;;;;;6.45;3.33;;;7.80;72.10;;;;;;2286399;55;21053;-66
2024/02/03 06:44:03;;;;;;;5.72;3.47;;;7.80;72.10;;;;;;2286963;55;21009;-68
2024/02/03 06:46:29;;;;;;;5.93;2.87;;;7.80;72.10;;;;;;2288961;55;21068;-67
2024/02/03 06:48:56;;;;;;;6.07;3.45;;;7.80;72.10;;;;;;2511730;54;21017;-67
2024/02/03 06:51:22;;;;;;;5.93;3.42;;;7.80;72.00;;;;;;2286558;56;21005;-67
2024/02/03 06:53:49;;;;;;;6.53;3.85;;;7.80;72.00;;;;;;2519206;54;21001;-66
2024/02/03 06:56:15;;;;;;;6.28;3.47;;;7.80;71.90;;;;;;2286313;55;20963;-66
2024/02/03 06:58:43;;;;;;;5.40;2.97;;;7.80;71.90;;;;;;2286427;55;20965;-67
2024/02/03 07:01:12;;;;;;;5.82;2.97;;;7.80;71.80;;;;;;2278484;56;20974;-68
2024/02/03 07:03:40;;;;;;;5.35;3.10;;;7.80;71.70;;;;;;2285686;55;20997;-66
2024/02/03 07:06:07;;;;;;;4.40;2.65;;;7.80;71.80;;;;;;2284963;55;21781;-68
2024/02/03 07:08:33;;;;;;;4.62;2.85;;;7.80;71.70;;;;;;2520313;54;21001;-67
2024/02/03 07:10:59;;;;;;;5.53;3.03;;;7.80;71.70;;;;;;2520661;54;21017;-67
2024/02/03 07:13:27;;;;;;;4.75;2.62;;;7.80;71.60;;;;;;2521169;54;21021;-67
2024/02/03 07:15:54;;;;;;;4.45;2.50;;;7.70;71.50;;;;;;2520442;54;20937;-67
2024/02/03 07:18:20;;;;;;;5.28;2.87;;;7.70;71.60;;;;;;2520680;54;20953;-66
2024/02/03 07:20:47;;;;;;;5.70;3.03;;;7.70;71.60;;;;;;2281913;55;20934;-68
2024/02/03 07:23:14;;;;;;;5.47;3.35;;;7.70;71.70;;;;;;2286191;55;21009;-66
2024/02/03 07:25:42;;;;;;;5.12;3.10;;;7.70;71.70;;;;;;2285441;55;20930;-67
2024/02/03 07:28:09;;;;;;;5.32;3.45;;;7.70;71.80;;;;;;2286194;55;21010;-67
2024/02/03 07:30:35;;;;;;;5.28;3.35;;;7.70;72.00;;;;;;2289997;55;22854;-67
2024/02/03 07:33:01;;;;;;;6.12;3.42;;;7.70;72.10;;;;;;2509010;55;21026;-67
2024/02/03 07:35:29;;;;;;;5.70;3.37;;;7.70;72.20;;;;;;2269634;56;21330;-67
2024/02/03 07:37:56;;;;;;;6.68;3.95;;;7.70;72.40;;;;;;2284363;55;20949;-66
2024/02/03 07:40:23;;;;;;;7.78;4.57;;;7.70;72.40;;;;;;2286824;55;20954;-66
2024/02/03 07:42:50;;;;;;;6.55;4.10;;;7.70;72.60;;;;;;2520677;54;21005;-67
2024/02/03 07:45:16;;;;;;;7.37;4.43;;;7.70;72.80;;;;;;2286048;55;20916;-67
2024/02/03 07:47:43;;;;;;;6.47;3.65;;;7.70;72.90;;;;;;2511215;55;21862;-68
2024/02/03 07:50:09;;;;;;;7.10;4.15;;;7.80;73.20;;;;;;2286196;56;21408;-66
2024/02/03 07:52:36;;;;;;;8.18;5.07;;;7.80;73.30;;;;;;2289483;55;22459;-66
2024/02/03 07:55:03;;;;;;;8.48;5.05;;;7.80;73.50;;;;;;2520239;54;21865;-67
2024/02/03 07:57:29;;;;;;;6.30;3.90;;;7.90;73.60;;;;;;2286936;55;20977;-66
2024/02/03 07:59:56;;;;;;;7.60;4.28;;;7.90;73.80;;;;;;2520163;54;21861;-67
2024/02/03 08:02:23;;;;;;;7.85;5.20;;;7.90;73.90;;;;;;2288168;55;20966;-67
2024/02/03 08:04:50;;;;;;;11.23;7.37;;;8.00;74.10;;;;;;2282523;56;20959;-67
2024/02/03 08:07:16;;;;;;;12.37;7.43;;;8.00;74.10;;;;;;2513873;54;21904;-67
2024/02/03 08:09:43;;;;;;;10.52;6.72;;;8.10;74.30;;;;;;2288507;55;20950;-67
2024/02/03 08:12:10;;;;;;;11.20;6.80;;;8.20;74.50;;;;;;2284344;56;20941;-68
2024/02/03 08:14:37;;;;;;;9.90;6.25;;;8.20;74.70;;;;;;2286484;55;21025;-68
2024/02/03 08:17:04;;;;;;;8.43;5.45;;;8.30;74.90;;;;;;2286409;55;20969;-68
2024/02/03 08:19:32;;;;;;;8.80;5.37;;;8.40;75.00;;;;;;2286860;55;20969;-67
2024/02/03 08:22:01;;;;;;;8.38;5.87;;;8.40;75.10;;;;;;2518571;54;21242;-68
2024/02/03 08:24:31;;;;;;;10.32;6.87;;;8.50;75.20;;;;;;2279296;55;20998;-67
2024/02/03 08:26:58;;;;;;;12.40;7.50;;;8.60;75.30;;;;;;2286149;55;21017;-67
2024/02/03 08:29:25;;;;;;;11.60;7.90;;;8.60;75.30;;;;;;2286608;55;20996;-67
2024/02/03 08:31:51;;;;;;;11.50;7.70;;;8.70;75.50;;;;;;2286422;55;21423;-68
2024/02/03 08:34:18;;;;;;;12.90;8.05;;;8.80;75.60;;;;;;2285682;55;21454;-67
2024/02/03 08:36:45;;;;;;;12.60;7.75;;;8.80;75.60;;;;;;2285584;56;21265;-67
2024/02/03 08:39:11;;;;;;;13.18;8.45;;;8.90;75.70;;;;;;2280035;55;21818;-67
2024/02/03 08:42:11;;;;;;;13.75;8.55;;;9.00;75.70;;;;;;2520237;54;20990;-66
2024/02/03 08:44:39;;;;;;;13.98;8.40;;;9.10;75.80;;;;;;2520563;54;21036;-67
2024/02/03 08:47:06;;;;;;;13.10;8.40;;;9.10;75.70;;;;;;2520087;54;20969;-67
2024/02/03 08:49:34;;;;;;;13.20;8.00;;;9.20;75.80;;;;;;2520437;54;20945;-67
2024/02/03 08:52:02;;;;;;;13.73;8.57;;;9.30;75.90;;;;;;2285909;56;21005;-68
2024/02/03 08:54:28;;;;;;;10.85;7.85;;;9.40;76.00;;;;;;2520311;54;21073;-69
2024/02/03 08:56:54;;;;;;;11.32;7.45;;;9.40;76.00;;;;;;2520139;54;21180;-66
2024/02/03 08:59:23;;;;;;;10.93;7.20;;;9.50;76.10;;;;;;2286098;55;20926;-68
2024/02/03 09:01:50;;;;;;;10.18;7.03;;;9.60;76.20;;;;;;2286470;55;21458;-68
2024/02/03 09:04:16;;;;;;;10.35;6.15;;;9.60;76.20;;;;;;2520097;54;20981;-68
2024/02/03 09:06:42;;;;;;;8.93;6.37;;;9.70;76.30;;;;;;2286484;55;20951;-67
2024/02/03 09:09:09;;;;;;;8.13;5.78;;;9.80;76.30;;;;;;2286389;55;20937;-66
2024/02/03 09:11:35;;;;;;;9.80;6.37;;;9.90;76.40;;;;;;2286200;56;21004;-67
2024/02/03 09:14:04;;;;;;;8.38;5.80;;;9.90;76.40;;;;;;2285940;55;20961;-67
2024/02/03 09:16:30;;;;;;;8.82;5.78;;;10.00;75.40;;;;;;2285786;55;21000;-68
2024/02/03 09:18:56;;;;;;;10.30;6.37;;;10.10;75.40;;;;;;2285839;55;20945;-67
2024/02/03 09:21:23;;;;;;;7.87;5.30;;;10.20;75.50;;;;;;2520463;54;21401;-67
2024/02/03 09:23:49;;;;;;;8.82;6.05;;;10.20;75.30;;;;;;2286318;55;22199;-67
2024/02/03 09:26:16;;;;;;;9.48;5.95;;;10.30;75.20;;;;;;2285872;55;21001;-68
2024/02/03 09:28:42;;;;;;;10.50;5.93;;;10.30;75.10;;;;;;2520173;54;21398;-67
2024/02/03 09:31:09;;;;;;;8.43;5.68;;;10.40;75.10;;;;;;2286204;55;20941;-68
2024/02/03 09:33:36;;;;;;;8.32;5.45;;;10.50;75.20;;;;;;2281974;56;21101;-67
2024/02/03 09:36:04;;;;;;;7.28;5.30;;;10.50;75.10;;;;;;2519961;54;21005;-68
2024/02/03 09:38:30;;;;;;;8.40;5.47;;;10.60;75.00;;;;;;2286502;55;21013;-66
2024/02/03 09:41:00;;;;;;;8.43;5.95;;;10.60;74.90;;;;;;2519949;54;20933;-67
2024/02/03 09:43:31;;;;;;;9.05;5.15;;;10.70;74.90;;;;;;2520444;54;21013;-67
2024/02/03 09:45:58;;;;;;;6.18;4.05;;;10.80;74.70;;;;;;2519593;54;20951;-68
2024/02/03 09:48:24;;;;;;;8.48;4.93;;;10.80;74.80;;;;;;2286643;55;20930;-69
2024/02/03 09:50:51;;;;;;;7.20;4.43;;;10.80;74.90;;;;;;2286808;55;21120;-69
2024/02/03 09:53:17;;;;;;;7.20;4.50;;;10.90;75.00;;;;;;2286200;55;20941;-68
2024/02/03 09:55:43;;;;;;;6.90;4.80;;;11.00;75.20;;;;;;2520260;54;20941;-67
2024/02/03 09:58:10;;;;;;;8.43;5.78;;;11.00;75.20;;;;;;2285945;55;21280;-68
2024/02/03 10:00:37;;;;;;;8.55;5.57;;;11.00;75.20;;;;;;2286161;55;20957;-68
2024/02/03 10:03:14;;;;;;;8.90;5.68;;;11.10;75.40;;;;;;2285757;55;20921;-69
2024/02/03 10:05:43;;;;;;;10.15;4.95;;;11.20;75.20;;;;;;2288642;55;20936;-69
2024/02/03 10:08:11;;;;;;;8.48;5.10;;;11.20;75.50;;;;;;2511399;55;21008;-69
2024/02/03 10:10:38;;;;;;;8.80;5.80;;;11.30;75.60;;;;;;2511139;54;21399;-68
2024/02/03 10:13:09;;;;;;;9.07;5.87;;;11.40;75.80;;;;;;2285727;55;21335;-70
2024/02/03 10:15:36;;;;;;;8.13;5.10;;;11.40;75.80;;;;;;2521107;54;20997;-67
2024/02/03 10:18:05;;;;;;;6.90;4.15;;;11.50;75.80;;;;;;2519208;54;21022;-68
2024/02/03 10:20:32;;;;;;;7.32;3.72;;;11.60;75.90;;;;;;2286825;55;21279;-69
2024/02/03 10:22:59;;;;;;;5.37;3.22;;;11.70;75.80;;;;;;2285044;55;21018;-68
2024/02/03 10:25:27;;;;;;;5.75;3.80;;;11.70;75.60;;;;;;2286771;55;20941;-67
2024/02/03 10:28:03;;;;;;;5.97;3.90;;;11.80;75.60;;;;;;2520040;54;21065;-69
2024/02/03 10:30:32;;;;;;;6.78;3.95;;;11.90;75.40;;;;;;2518819;54;20945;-68
2024/02/03 10:33:00;;;;;;;6.55;4.00;;;11.90;75.50;;;;;;2510152;55;20997;-68
2024/02/03 10:35:30;;;;;;;5.60;3.58;;;12.00;75.40;;;;;;2520726;54;21193;-69
2024/02/03 10:37:59;;;;;;;5.97;3.70;;;12.00;75.20;;;;;;2286008;55;21430;-67
2024/02/03 10:40:34;;;;;;;5.37;3.20;;;12.10;75.40;;;;;;2287280;55;20977;-68
2024/02/03 10:43:01;;;;;;;8.20;4.37;;;12.10;75.10;;;;;;2513497;54;20969;-67
2024/02/03 10:45:28;;;;;;;5.78;3.58;;;12.20;75.10;;;;;;2284100;55;21233;-68
2024/02/03 10:47:57;;;;;;;7.43;4.40;;;12.20;74.90;;;;;;2286437;55;20982;-68
2024/02/03 10:50:26;;;;;;;6.75;3.78;;;12.30;75.00;;;;;;2286156;55;20974;-67
2024/02/03 10:52:56;;;;;;;6.00;3.83;;;12.30;74.70;;;;;;2286093;55;20897;-69
2024/02/03 10:55:22;;;;;;;5.90;3.65;;;12.40;74.70;;;;;;2285935;55;20988;-69
2024/02/03 10:57:52;;;;;;;5.18;2.90;;;12.40;74.70;;;;;;2283685;55;21051;-68
2024/02/03 11:00:18;;;;;;;4.18;2.37;;;12.50;74.50;;;;;;2280299;56;21061;-67
2024/02/03 11:02:52;;;;;;;5.57;2.80;;;12.50;74.60;;;;;;2519970;54;20945;-68
2024/02/03 11:05:22;;;;;;;5.47;3.37;;;12.50;74.30;;;;;;2519593;54;20966;-67
2024/02/03 11:07:49;;;;;;;4.90;2.85;;;12.60;74.40;;;;;;2520540;54;21093;-69
2024/02/03 11:10:16;;;;;;;5.97;3.53;;;12.60;74.50;;;;;;2286970;55;21754;-68
2024/02/03 11:12:42;;;;;;;5.35;3.33;;;12.60;74.30;;;;;;2514064;54;21667;-68
2024/02/03 11:15:11;;;;;;;5.93;4.05;;;12.70;74.20;;;;;;2286253;55;20961;-68
2024/02/03 11:17:44;;;;;;;6.62;3.62;;;12.70;74.20;;;;;;2520967;54;21009;-69
2024/02/03 11:20:20;;;;;;;6.68;3.92;;;12.70;74.50;;;;;;2285332;55;20969;-70
2024/02/03 11:22:51;;;;;;;5.20;3.42;;;12.80;74.60;;;;;;2286697;55;21037;-67
2024/02/03 11:25:19;;;;;;;7.93;4.10;;;12.80;75.00;;;;;;2513117;54;21490;-68
2024/02/03 11:27:48;;;;;;;7.10;4.03;;;12.90;75.60;;;;;;2520498;54;20941;-68
2024/02/03 11:30:17;;;;;;;7.30;4.40;;;12.90;75.80;;;;;;2519677;54;20933;-68
2024/02/03 11:32:47;;;;;;;7.10;4.40;;;13.00;76.00;;;;;;2520361;54;21017;-69
2024/02/03 11:35:17;;;;;;;6.00;3.92;;;13.10;76.50;;;;;;2286094;55;21000;-68
2024/02/03 11:37:43;;;;;;;6.03;3.97;;;13.10;75.50;;;;;;2285358;55;21005;-67
2024/02/03 11:40:10;;;;;;;6.87;4.57;;;13.20;75.80;;;;;;2285243;55;20953;-69
2024/02/03 11:42:37;;;;;;;5.93;3.80;;;13.30;75.70;;;;;;2286313;55;21427;-67
2024/02/03 11:45:04;;;;;;;6.20;4.35;;;13.30;75.60;;;;;;2519901;54;20981;-69
2024/02/03 11:47:30;;;;;;;5.18;3.65;;;13.40;75.40;;;;;;2288120;55;21022;-67
2024/02/03 11:49:57;;;;;;;5.12;3.28;;;13.40;75.10;;;;;;2279088;55;21008;-68
2024/02/03 11:52:24;;;;;;;5.37;2.80;;;13.40;74.90;;;;;;2285296;55;20997;-67
2024/02/03 11:54:51;;;;;;;5.55;2.65;;;13.40;74.70;;;;;;2286000;55;21965;-68
2024/02/03 11:57:17;;;;;;;4.85;2.62;;;13.40;74.50;;;;;;2285309;55;21074;-68
2024/02/03 11:59:44;;;;;;;4.30;2.40;;;13.50;74.40;;;;;;2517210;54;21432;-68
2024/02/03 12:02:12;;;;;;;5.25;2.95;;;13.50;74.50;;;;;;2283486;55;20953;-67
2024/02/03 12:04:38;;;;;;;5.18;2.35;;;13.50;74.30;;;;;;2279593;55;21017;-69
2024/02/03 12:07:06;;;;;;;4.95;2.78;;;13.50;73.80;;;;;;2519679;54;21439;-69
2024/02/03 12:09:33;;;;;;;5.62;3.00;;;13.50;73.60;;;;;;2286111;55;21037;-68
2024/02/03 12:11:59;;;;;;;5.22;2.62;;;13.50;73.60;;;;;;2285615;55;20989;-67
2024/02/03 12:14:29;;;;;;;4.87;2.80;;;13.50;73.60;;;;;;2286343;55;20942;-68
2024/02/03 12:16:59;;;;;;;5.30;3.05;;;13.50;73.30;;;;;;2286015;55;20961;-67
2024/02/03 12:19:27;;;;;;;5.90;3.03;;;13.40;73.30;;;;;;2286207;55;21826;-67
2024/02/03 12:21:54;;;;;;;5.30;3.22;;;13.50;73.60;;;;;;2286403;55;21006;-70
2024/02/03 12:24:21;;;;;;;4.93;2.95;;;13.40;73.90;;;;;;2285612;55;21012;-68
2024/02/03 12:26:47;;;;;;;5.43;3.20;;;13.50;74.30;;;;;;2514641;54;20962;-68
2024/02/03 12:29:14;;;;;;;5.28;3.28;;;13.50;74.30;;;;;;2282374;55;20993;-69
2024/02/03 12:31:40;;;;;;;5.28;3.08;;;13.50;74.20;;;;;;2521326;54;20925;-69
2024/02/03 12:34:08;;;;;;;5.57;3.45;;;13.60;74.30;;;;;;2285413;55;20945;-67
2024/02/03 12:36:36;;;;;;;6.60;4.12;;;13.50;74.10;;;;;;2513547;54;21018;-68
2024/02/03 12:39:02;;;;;;;6.18;3.90;;;13.60;74.20;;;;;;2516421;54;20985;-67
2024/02/03 12:41:28;;;;;;;5.82;3.80;;;13.60;74.30;;;;;;2517967;54;21244;-67
2024/02/03 12:43:55;;;;;;;4.55;2.83;;;13.70;74.30;;;;;;2278694;56;21082;-68
2024/02/03 12:46:23;;;;;;;4.57;2.90;;;13.70;74.50;;;;;;2519686;54;21239;-68
2024/02/03 12:48:51;;;;;;;4.97;2.87;;;13.70;74.60;;;;;;2520306;54;21134;-68
2024/02/03 12:51:17;;;;;;;5.53;3.15;;;13.70;74.70;;;;;;2285964;55;21430;-67